Nearby METAR Reports

EGBB - Birmingham Airport
Distance: SSW 46mi, 74km
Updated: 11/12/2017 20:20
Clear
Clear
 Wind from WNW
Wind: WNW 8 mph , 13 km/h
Temperature: -2°C
Wind Chill: -7°C
Dew Point: -3°C
Humidity: 93%
Barometer: 996 hPa
Summary: Clear
Visibility: greater than 7 miles , 10 km
2017/12/11 20:20 EGBB 112020Z 30007KT CAVOK M02/M03 Q0996
EGBE - Coventry Airport
Distance: S 49mi, 79km
Updated: 18/07/2017 14:50
NOT Current
Clear
Clear
 Wind from E
Wind: E 16 mph , 26 km/h
Temperature: 27°C
Heat Index: 27°C
Dew Point: 14°C
Humidity: 45%
Barometer: 1015 hPa
Summary: Clear
Visibility: greater than 7 miles , 10 km
2017/07/18 13:50 EGBE 181350Z 10014KT 060V120 CAVOK 27/14 Q1015
EGCC - Manchester International
Distance: WNW 45mi, 72km
Updated: 11/12/2017 20:20
Clear
Clear
 Wind from WNW
Wind: WNW 3 mph , 6 km/h
Temperature: -1°C
Dew Point: -4°C
Humidity: 80%
Barometer: 997 hPa
Clouds: Clear
Visibility: 6 miles , 10 km
2017/12/11 20:20 EGCC 112020Z AUTO 30003KT 9999 NCD M01/M04 Q0997 NOSIG
 
EGCN - Doncaster Sheffield
Distance: NNE 31mi, 50km
Updated: 11/12/2017 20:20
Clear
Clear
 Wind from NW
Wind: NW 12 mph , 19 km/h
Temperature: 0°C
Wind Chill: -5°C
Dew Point: -2°C
Humidity: 87%
Barometer: 996 hPa
Summary: Clear
Visibility: greater than 7 miles , 10 km
2017/12/11 20:20 EGCN 112020Z 31010KT CAVOK M00/M02 Q0996
EGNX - East Midlands
Distance: S 18mi, 28km
Updated: 11/12/2017 20:20
Clear
Clear
 Wind from WNW
Wind: WNW 10 mph , 17 km/h
Temperature: -3°C
Wind Chill: -8°C
Dew Point: -5°C
Humidity: 86%
Barometer: 995 hPa
Summary: Clear
Visibility: greater than 7 miles , 10 km
2017/12/11 20:20 EGNX 112020Z 29009KT CAVOK M03/M05 Q0995
EGXC - Coningsby RAF
Distance: E 47mi, 75km
Updated: 11/12/2017 19:50
Few Clouds
Few Clouds
 Wind from NW
Wind: NW 12 mph , 19 km/h
Temperature: -1°C
Wind Chill: -7°C
Dew Point: -2°C
Humidity: 93%
Barometer: 993 hPa
Clouds: Few Clouds
Visibility: 6 miles , 10 km
Cloud details: Few Clouds 1372 m
2017/12/11 19:50 EGXC 111950Z 32010KT 9999 FEW045 M01/M02 Q0993 BLU TEMPO 4000 SHRASN BKN020CB GRN
 
EGXP - Scampton RAF
Distance: ENE 35mi, 56km
Updated: 11/12/2017 19:50
Few Clouds
Few Clouds
 Wind from NW
Wind: NW 13 mph , 20 km/h
Temperature: -2°C
Wind Chill: -8°C
Dew Point: -3°C
Humidity: 93%
Barometer: 993 hPa
Clouds: Few Clouds
Visibility: 6 miles , 10 km
Cloud details: Few Clouds 1524 m
2017/12/11 19:50 EGXP 111950Z AUTO 31011KT 9999 // FEW050/// M02/M03 Q0993
EGXS - Swinderby RAF
Distance: ENE 26mi, 42km
Updated: 11/12/2017 19:50
Partly cloudy
Partly cloudy
 Wind from NW
Wind: NW 22 mph , 35 km/h
Temperature: 2°C
Wind Chill: -4°C
Dew Point: 1°C
Humidity: 93%
Barometer: 993 hPa
Clouds: Partly cloudy
Visibility: 6 miles , 10 km
Cloud details: Few Clouds 640 m
Partly cloudy 1219 m
2017/12/11 19:50 EGXS 111950Z AUTO 32019KT 9999 // FEW021/// SCT040/// 02/01 Q0993
EGXT - Wittering RAF
Distance: SE 47mi, 75km
Updated: 11/12/2017 19:50
Clear
Clear
 Wind from NW
Wind: NW 13 mph , 20 km/h
Temperature: -1°C
Wind Chill: -7°C
Dew Point: -3°C
Humidity: 86%
Barometer: 993 hPa
Clouds: Clear
Visibility: 6 miles , 10 km
2017/12/11 19:50 EGXT 111950Z AUTO 32011KT 9999 NCD M01/M03 Q0993
 
EGXW - Waddington RAF
Distance: ENE 33mi, 53km
Updated: 11/12/2017 19:50
Few Clouds
Few Clouds
 Wind from NW
Wind: NW 13 mph , 20 km/h
Temperature: -1°C
Wind Chill: -7°C
Dew Point: -3°C
Humidity: 86%
Barometer: 993 hPa
Clouds: Few Clouds
Visibility: 6 miles , 10 km
Cloud details: Few Clouds 1372 m
2017/12/11 19:50 EGXW 111950Z 31011KT 9999 FEW045 M01/M03 Q0993 BLU
EGYD - Cranwell RAF
Distance: E 33mi, 53km
Updated: 11/12/2017 19:50
Clear
Clear
 Wind from NW
Wind: NW 15 mph , 24 km/h
Temperature: -1°C
Wind Chill: -7°C
Dew Point: -3°C
Humidity: 86%
Barometer: 993 hPa
Clouds: Clear
Visibility: 6 miles , 10 km
2017/12/11 19:50 EGYD 111950Z AUTO 31013KT 9999 // NCD M01/M03 Q0993
EGYE - Barkston Heath RAF
Distance: ESE 31mi, 50km
Updated: 11/12/2017 08:50
NOT Current
Mostly cloudy
Mostly cloudy
 Wind from N
Wind: N 10 mph , 17 km/h
Barometer: 985 hPa
Clouds: Mostly cloudy
Visibility: 6 miles , 10 km
Cloud details: Partly cloudy 1067 m
Mostly cloudy 4267 m
2017/12/11 08:50 EGYE 110850Z 35009KT 9999 SCT035 BKN140 ///// Q0985 BLACKBLU